sensor_id;sensor_type;location;lat;lon;timestamp;pressure;altitude;pressure_sealevel;temperature;humidity
52535;BME280;38443;53.164;5.802;2022-10-16T00:00:29;100860.75;;;11.42;93.70
52535;BME280;38443;53.164;5.802;2022-10-16T00:02:55;100870.59;;;11.41;93.87
52535;BME280;38443;53.164;5.802;2022-10-16T00:05:20;100863.53;;;11.38;93.83
52535;BME280;38443;53.164;5.802;2022-10-16T00:07:45;100864.38;;;11.41;93.63
52535;BME280;38443;53.164;5.802;2022-10-16T00:10:11;100864.41;;;11.39;94.04
52535;BME280;38443;53.164;5.802;2022-10-16T00:12:36;100859.03;;;11.39;94.04
52535;BME280;38443;53.164;5.802;2022-10-16T00:15:01;100861.72;;;11.39;93.93
52535;BME280;38443;53.164;5.802;2022-10-16T00:17:26;100859.03;;;11.39;93.77
52535;BME280;38443;53.164;5.802;2022-10-16T00:19:52;100853.69;;;11.39;93.72
52535;BME280;38443;53.164;5.802;2022-10-16T00:22:17;100859.91;;;11.40;93.69
52535;BME280;38443;53.164;5.802;2022-10-16T00:24:43;100857.16;;;11.43;93.58
52535;BME280;38443;53.164;5.802;2022-10-16T00:27:08;100854.34;;;11.46;93.48
52535;BME280;38443;53.164;5.802;2022-10-16T00:29:33;100852.53;;;11.46;93.28
52535;BME280;38443;53.164;5.802;2022-10-16T00:31:58;100849.94;;;11.45;92.98
52535;BME280;38443;53.164;5.802;2022-10-16T00:34:23;100854.41;;;11.44;93.28
52535;BME280;38443;53.164;5.802;2022-10-16T00:36:49;100850.03;;;11.42;93.19
52535;BME280;38443;53.164;5.802;2022-10-16T00:39:14;100851.06;;;11.37;93.27
52535;BME280;38443;53.164;5.802;2022-10-16T00:41:39;100861.78;;;11.37;93.31
52535;BME280;38443;53.164;5.802;2022-10-16T00:44:42;100844.94;;;11.32;93.40
52535;BME280;38443;53.164;5.802;2022-10-16T00:46:50;100836.00;;;11.33;93.28
52535;BME280;38443;53.164;5.802;2022-10-16T00:49:16;100838.56;;;11.36;93.48
52535;BME280;38443;53.164;5.802;2022-10-16T00:51:43;100837.66;;;11.37;93.04
52535;BME280;38443;53.164;5.802;2022-10-16T00:54:27;100842.94;;;11.41;93.30
52535;BME280;38443;53.164;5.802;2022-10-16T00:56:54;100839.31;;;11.42;93.10
52535;BME280;38443;53.164;5.802;2022-10-16T00:59:22;100834.72;;;11.45;93.13
52535;BME280;38443;53.164;5.802;2022-10-16T01:01:49;100838.09;;;11.50;92.87
52535;BME280;38443;53.164;5.802;2022-10-16T01:04:14;100836.16;;;11.55;92.73
52535;BME280;38443;53.164;5.802;2022-10-16T01:09:13;100850.19;;;11.64;92.20
52535;BME280;38443;53.164;5.802;2022-10-16T01:14:24;100842.88;;;11.69;91.97
52535;BME280;38443;53.164;5.802;2022-10-16T01:21:45;100860.53;;;11.74;91.02
52535;BME280;38443;53.164;5.802;2022-10-16T01:29:53;100868.59;;;11.74;91.17
52535;BME280;38443;53.164;5.802;2022-10-16T01:32:27;100868.59;;;11.74;90.86
52535;BME280;38443;53.164;5.802;2022-10-16T01:34:55;100864.00;;;11.78;90.31
52535;BME280;38443;53.164;5.802;2022-10-16T01:40:09;100861.28;;;11.80;90.00
52535;BME280;38443;53.164;5.802;2022-10-16T01:42:37;100862.91;;;11.84;89.14
52535;BME280;38443;53.164;5.802;2022-10-16T01:45:04;100862.81;;;11.87;89.94
52535;BME280;38443;53.164;5.802;2022-10-16T01:47:31;100873.72;;;11.81;90.93
52535;BME280;38443;53.164;5.802;2022-10-16T01:49:57;100876.63;;;11.74;91.82
52535;BME280;38443;53.164;5.802;2022-10-16T01:52:24;100877.88;;;11.64;92.62
52535;BME280;38443;53.164;5.802;2022-10-16T01:54:52;100879.88;;;11.57;92.81
52535;BME280;38443;53.164;5.802;2022-10-16T01:57:18;100877.25;;;11.56;92.50
52535;BME280;38443;53.164;5.802;2022-10-16T01:59:46;100875.56;;;11.53;92.52
52535;BME280;38443;53.164;5.802;2022-10-16T02:02:12;100882.78;;;11.51;92.66
52535;BME280;38443;53.164;5.802;2022-10-16T02:04:48;100883.75;;;11.49;92.74
52535;BME280;38443;53.164;5.802;2022-10-16T02:07:14;100895.38;;;11.48;92.85
52535;BME280;38443;53.164;5.802;2022-10-16T02:09:40;100892.81;;;11.45;93.01
52535;BME280;38443;53.164;5.802;2022-10-16T02:12:07;100886.56;;;11.44;93.06
52535;BME280;38443;53.164;5.802;2022-10-16T02:14:34;100891.88;;;11.46;92.62
52535;BME280;38443;53.164;5.802;2022-10-16T02:17:09;100882.09;;;11.45;92.91
52535;BME280;38443;53.164;5.802;2022-10-16T02:19:35;100878.47;;;11.46;92.40
52535;BME280;38443;53.164;5.802;2022-10-16T02:22:01;100879.25;;;11.49;91.98
52535;BME280;38443;53.164;5.802;2022-10-16T02:29:45;100877.38;;;11.53;91.05
52535;BME280;38443;53.164;5.802;2022-10-16T02:32:15;100878.28;;;11.52;91.08
52535;BME280;38443;53.164;5.802;2022-10-16T02:34:42;100870.22;;;11.52;91.06
52535;BME280;38443;53.164;5.802;2022-10-16T02:37:08;100880.91;;;11.53;90.37
52535;BME280;38443;53.164;5.802;2022-10-16T02:39:35;100876.47;;;11.52;90.20
52535;BME280;38443;53.164;5.802;2022-10-16T02:42:00;100875.56;;;11.53;90.62
52535;BME280;38443;53.164;5.802;2022-10-16T02:44:26;100881.78;;;11.54;90.56
52535;BME280;38443;53.164;5.802;2022-10-16T02:46:51;100883.63;;;11.52;90.25
52535;BME280;38443;53.164;5.802;2022-10-16T02:49:16;100888.22;;;11.48;89.96
52535;BME280;38443;53.164;5.802;2022-10-16T02:51:43;100874.09;;;11.43;90.46
52535;BME280;38443;53.164;5.802;2022-10-16T02:54:08;100874.25;;;11.38;90.41
52535;BME280;38443;53.164;5.802;2022-10-16T02:56:33;100868.19;;;11.32;90.70
52535;BME280;38443;53.164;5.802;2022-10-16T02:58:58;100878.25;;;11.25;90.79
52535;BME280;38443;53.164;5.802;2022-10-16T03:01:24;100883.69;;;11.22;90.79
52535;BME280;38443;53.164;5.802;2022-10-16T03:03:49;100875.84;;;11.16;90.41
52535;BME280;38443;53.164;5.802;2022-10-16T03:06:14;100871.53;;;11.10;90.90
52535;BME280;38443;53.164;5.802;2022-10-16T03:08:39;100868.03;;;11.08;90.71
52535;BME280;38443;53.164;5.802;2022-10-16T03:11:05;100869.03;;;11.06;90.72
52535;BME280;38443;53.164;5.802;2022-10-16T03:13:30;100875.25;;;11.06;90.13
52535;BME280;38443;53.164;5.802;2022-10-16T03:15:55;100882.38;;;11.07;90.40
52535;BME280;38443;53.164;5.802;2022-10-16T03:18:20;100878.88;;;11.05;90.53
52535;BME280;38443;53.164;5.802;2022-10-16T03:20:46;100888.72;;;11.05;89.89
52535;BME280;38443;53.164;5.802;2022-10-16T03:23:11;100880.69;;;11.05;90.22
52535;BME280;38443;53.164;5.802;2022-10-16T03:25:36;100883.25;;;11.08;90.25
52535;BME280;38443;53.164;5.802;2022-10-16T03:28:02;100884.13;;;11.08;90.17
52535;BME280;38443;53.164;5.802;2022-10-16T03:30:28;100886.72;;;11.11;90.23
52535;BME280;38443;53.164;5.802;2022-10-16T03:32:53;100894.47;;;11.21;89.87
52535;BME280;38443;53.164;5.802;2022-10-16T03:35:22;100899.63;;;11.27;89.87
52535;BME280;38443;53.164;5.802;2022-10-16T03:37:47;100895.88;;;11.32;89.94
52535;BME280;38443;53.164;5.802;2022-10-16T03:40:13;100895.69;;;11.38;89.61
52535;BME280;38443;53.164;5.802;2022-10-16T03:42:38;100894.75;;;11.40;89.68
52535;BME280;38443;53.164;5.802;2022-10-16T03:45:04;100893.72;;;11.44;89.35
52535;BME280;38443;53.164;5.802;2022-10-16T03:47:29;100890.84;;;11.50;89.37
52535;BME280;38443;53.164;5.802;2022-10-16T03:49:55;100888.00;;;11.54;89.37
52535;BME280;38443;53.164;5.802;2022-10-16T03:52:20;100902.13;;;11.61;89.62
52535;BME280;38443;53.164;5.802;2022-10-16T03:54:46;100910.94;;;11.65;90.01
52535;BME280;38443;53.164;5.802;2022-10-16T03:57:12;100911.03;;;11.62;90.57
52535;BME280;38443;53.164;5.802;2022-10-16T03:59:37;100921.94;;;11.55;91.69
52535;BME280;38443;53.164;5.802;2022-10-16T04:02:02;100925.66;;;11.51;91.98
52535;BME280;38443;53.164;5.802;2022-10-16T04:04:27;100924.91;;;11.46;92.59
52535;BME280;38443;53.164;5.802;2022-10-16T04:06:53;100929.44;;;11.44;92.75
52535;BME280;38443;53.164;5.802;2022-10-16T04:09:18;100940.25;;;11.43;93.38
52535;BME280;38443;53.164;5.802;2022-10-16T04:11:43;100940.25;;;11.43;93.45
52535;BME280;38443;53.164;5.802;2022-10-16T04:14:08;100940.16;;;11.44;93.10
52535;BME280;38443;53.164;5.802;2022-10-16T04:16:34;100946.44;;;11.45;93.22
52535;BME280;38443;53.164;5.802;2022-10-16T04:18:59;100942.84;;;11.44;93.27
52535;BME280;38443;53.164;5.802;2022-10-16T04:21:24;100953.56;;;11.44;93.67
52535;BME280;38443;53.164;5.802;2022-10-16T04:23:49;100945.44;;;11.47;93.59
52535;BME280;38443;53.164;5.802;2022-10-16T04:26:15;100957.03;;;11.48;93.78
52535;BME280;38443;53.164;5.802;2022-10-16T04:28:40;100958.88;;;11.46;94.10
52535;BME280;38443;53.164;5.802;2022-10-16T04:31:06;100964.34;;;11.43;94.29
52535;BME280;38443;53.164;5.802;2022-10-16T04:33:31;100948.41;;;11.38;94.58
52535;BME280;38443;53.164;5.802;2022-10-16T04:35:57;100943.22;;;11.32;95.14
52535;BME280;38443;53.164;5.802;2022-10-16T04:38:22;100954.09;;;11.27;94.77
52535;BME280;38443;53.164;5.802;2022-10-16T04:40:48;100946.22;;;11.23;95.01
52535;BME280;38443;53.164;5.802;2022-10-16T04:43:13;100953.50;;;11.17;95.16
52535;BME280;38443;53.164;5.802;2022-10-16T04:45:38;100953.53;;;11.16;94.92
52535;BME280;38443;53.164;5.802;2022-10-16T04:48:03;100942.81;;;11.16;95.14
52535;BME280;38443;53.164;5.802;2022-10-16T04:50:29;100958.91;;;11.16;95.30
52535;BME280;38443;53.164;5.802;2022-10-16T04:52:54;100961.53;;;11.17;94.98
52535;BME280;38443;53.164;5.802;2022-10-16T04:55:19;100956.22;;;11.16;94.93
52535;BME280;38443;53.164;5.802;2022-10-16T04:57:44;100968.66;;;11.18;94.27
52535;BME280;38443;53.164;5.802;2022-10-16T05:00:10;100970.38;;;11.21;93.78
52535;BME280;38443;53.164;5.802;2022-10-16T05:02:35;100973.94;;;11.20;94.07
52535;BME280;38443;53.164;5.802;2022-10-16T05:05:01;100970.41;;;11.20;93.70
52535;BME280;38443;53.164;5.802;2022-10-16T05:07:26;100973.94;;;11.20;93.48
52535;BME280;38443;53.164;5.802;2022-10-16T05:09:51;100985.56;;;11.21;93.93
52535;BME280;38443;53.164;5.802;2022-10-16T05:12:16;100986.44;;;11.21;94.06
52535;BME280;38443;53.164;5.802;2022-10-16T05:14:44;100979.28;;;11.22;94.42
52535;BME280;38443;53.164;5.802;2022-10-16T05:17:10;100983.72;;;11.23;94.37
52535;BME280;38443;53.164;5.802;2022-10-16T05:19:35;100985.44;;;11.25;94.64
52535;BME280;38443;53.164;5.802;2022-10-16T05:22:00;100988.13;;;11.24;94.72
52535;BME280;38443;53.164;5.802;2022-10-16T05:24:25;100995.19;;;11.26;94.52
52535;BME280;38443;53.164;5.802;2022-10-16T05:26:51;101009.44;;;11.28;94.32
52535;BME280;38443;53.164;5.802;2022-10-16T05:29:16;101006.75;;;11.28;94.38
52535;BME280;38443;53.164;5.802;2022-10-16T05:31:42;101011.38;;;11.23;94.79
52535;BME280;38443;53.164;5.802;2022-10-16T05:34:07;100998.91;;;11.22;94.88
52535;BME280;38443;53.164;5.802;2022-10-16T05:36:32;101000.84;;;11.17;95.10
52535;BME280;38443;53.164;5.802;2022-10-16T05:38:58;101005.41;;;11.13;95.14
52535;BME280;38443;53.164;5.802;2022-10-16T05:41:23;100998.34;;;11.11;95.19
52535;BME280;38443;53.164;5.802;2022-10-16T05:43:50;101009.97;;;11.10;95.43
52535;BME280;38443;53.164;5.802;2022-10-16T05:46:16;101023.41;;;11.08;95.40
52535;BME280;38443;53.164;5.802;2022-10-16T05:48:41;101024.31;;;11.09;95.38
52535;BME280;38443;53.164;5.802;2022-10-16T05:51:07;101006.38;;;11.11;95.13
52535;BME280;38443;53.164;5.802;2022-10-16T05:53:35;101009.91;;;11.13;94.92
52535;BME280;38443;53.164;5.802;2022-10-16T05:56:00;101019.69;;;11.14;94.99
52535;BME280;38443;53.164;5.802;2022-10-16T05:58:30;101013.44;;;11.13;94.86
52535;BME280;38443;53.164;5.802;2022-10-16T06:00:56;101018.78;;;11.15;94.41
52535;BME280;38443;53.164;5.802;2022-10-16T06:03:22;101020.50;;;11.16;94.17
52535;BME280;38443;53.164;5.802;2022-10-16T06:05:47;101023.19;;;11.16;94.61
52535;BME280;38443;53.164;5.802;2022-10-16T06:08:12;101023.16;;;11.17;94.42
52535;BME280;38443;53.164;5.802;2022-10-16T06:10:37;101024.97;;;11.17;94.65
52535;BME280;38443;53.164;5.802;2022-10-16T06:13:03;101029.53;;;11.13;94.70
52535;BME280;38443;53.164;5.802;2022-10-16T06:15:28;101036.72;;;11.11;95.28
52535;BME280;38443;53.164;5.802;2022-10-16T06:17:54;101034.03;;;11.11;95.03
52535;BME280;38443;53.164;5.802;2022-10-16T06:20:19;101053.78;;;11.09;95.43
52535;BME280;38443;53.164;5.802;2022-10-16T06:22:44;101043.97;;;11.08;95.42
52535;BME280;38443;53.164;5.802;2022-10-16T06:25:09;101044.81;;;11.10;95.41
52535;BME280;38443;53.164;5.802;2022-10-16T06:27:35;101035.78;;;11.12;95.30
52535;BME280;38443;53.164;5.802;2022-10-16T06:30:00;101041.75;;;11.22;95.40
52535;BME280;38443;53.164;5.802;2022-10-16T06:32:26;101061.25;;;11.29;94.69
52535;BME280;38443;53.164;5.802;2022-10-16T06:34:52;101053.06;;;11.33;94.90
52535;BME280;38443;53.164;5.802;2022-10-16T06:37:17;101065.41;;;11.39;94.51
52535;BME280;38443;53.164;5.802;2022-10-16T06:39:42;101067.97;;;11.42;94.25
52535;BME280;38443;53.164;5.802;2022-10-16T06:42:07;101067.97;;;11.42;94.33
52535;BME280;38443;53.164;5.802;2022-10-16T06:44:33;101067.16;;;11.40;93.86
52535;BME280;38443;53.164;5.802;2022-10-16T06:46:58;101073.53;;;11.36;93.75
52535;BME280;38443;53.164;5.802;2022-10-16T06:49:23;101080.84;;;11.31;93.32
52535;BME280;38443;53.164;5.802;2022-10-16T06:51:48;101082.72;;;11.27;93.42
52535;BME280;38443;53.164;5.802;2022-10-16T06:54:14;101090.78;;;11.26;93.46
52535;BME280;38443;53.164;5.802;2022-10-16T06:56:40;101097.97;;;11.25;93.62
52535;BME280;38443;53.164;5.802;2022-10-16T06:59:05;101103.22;;;11.28;94.01
52535;BME280;38443;53.164;5.802;2022-10-16T07:01:30;101111.16;;;11.33;94.05
52535;BME280;38443;53.164;5.802;2022-10-16T07:03:56;101113.88;;;11.31;93.82
52535;BME280;38443;53.164;5.802;2022-10-16T07:06:22;101110.31;;;11.31;94.08
52535;BME280;38443;53.164;5.802;2022-10-16T07:08:47;101129.94;;;11.31;94.37
52535;BME280;38443;53.164;5.802;2022-10-16T07:11:14;101123.75;;;11.29;94.72
52535;BME280;38443;53.164;5.802;2022-10-16T07:13:40;101130.09;;;11.27;95.31
52535;BME280;38443;53.164;5.802;2022-10-16T07:18:31;101135.50;;;11.24;95.61
52535;BME280;38443;53.164;5.802;2022-10-16T07:21:04;101137.31;;;11.23;95.55
52535;BME280;38443;53.164;5.802;2022-10-16T07:23:29;101137.13;;;11.31;95.91
52535;BME280;38443;53.164;5.802;2022-10-16T07:25:55;101144.00;;;11.40;95.63
52535;BME280;38443;53.164;5.802;2022-10-16T07:28:20;101149.50;;;11.66;95.26
52535;BME280;38443;53.164;5.802;2022-10-16T07:30:45;101146.34;;;11.83;94.05
52535;BME280;38443;53.164;5.802;2022-10-16T07:33:11;101156.81;;;12.22;92.95
52535;BME280;38443;53.164;5.802;2022-10-16T07:35:36;101158.44;;;12.28;92.02
52535;BME280;38443;53.164;5.802;2022-10-16T07:38:01;101168.03;;;12.07;92.48
52535;BME280;38443;53.164;5.802;2022-10-16T07:40:26;101174.75;;;11.90;93.14
52535;BME280;38443;53.164;5.802;2022-10-16T07:42:52;101166.84;;;11.84;94.04
52535;BME280;38443;53.164;5.802;2022-10-16T07:45:17;101176.72;;;11.84;94.26
52535;BME280;38443;53.164;5.802;2022-10-16T07:47:42;101170.47;;;11.83;94.58
52535;BME280;38443;53.164;5.802;2022-10-16T07:50:07;101171.34;;;11.84;94.45
52535;BME280;38443;53.164;5.802;2022-10-16T07:52:33;101172.19;;;11.86;95.07
52535;BME280;38443;53.164;5.802;2022-10-16T07:54:58;101173.84;;;11.91;95.01
52535;BME280;38443;53.164;5.802;2022-10-16T07:57:23;101186.28;;;11.94;94.81
52535;BME280;38443;53.164;5.802;2022-10-16T07:59:48;101181.84;;;11.93;94.58
52535;BME280;38443;53.164;5.802;2022-10-16T08:02:14;101193.59;;;11.89;95.05
52535;BME280;38443;53.164;5.802;2022-10-16T08:04:39;101202.53;;;11.88;95.38
52535;BME280;38443;53.164;5.802;2022-10-16T08:07:06;101216.81;;;11.88;95.45
52535;BME280;38443;53.164;5.802;2022-10-16T08:09:31;101222.16;;;11.90;95.49
52535;BME280;38443;53.164;5.802;2022-10-16T08:11:56;101223.09;;;11.87;95.33
52535;BME280;38443;53.164;5.802;2022-10-16T08:14:21;101223.16;;;11.86;95.29
52535;BME280;38443;53.164;5.802;2022-10-16T08:16:47;101216.94;;;11.84;94.99
52535;BME280;38443;53.164;5.802;2022-10-16T08:19:12;101233.97;;;11.83;95.22
52535;BME280;38443;53.164;5.802;2022-10-16T08:21:37;101234.00;;;11.81;95.09
52535;BME280;38443;53.164;5.802;2022-10-16T08:24:02;101231.38;;;11.80;94.79
52535;BME280;38443;53.164;5.802;2022-10-16T08:26:28;101238.41;;;11.84;94.75
52535;BME280;38443;53.164;5.802;2022-10-16T08:28:53;101239.25;;;11.86;94.65
52535;BME280;38443;53.164;5.802;2022-10-16T08:31:19;101257.81;;;11.95;94.80
52535;BME280;38443;53.164;5.802;2022-10-16T08:33:44;101265.03;;;12.23;94.38
52535;BME280;38443;53.164;5.802;2022-10-16T08:36:11;101260.91;;;12.70;93.83
52535;BME280;38443;53.164;5.802;2022-10-16T08:38:37;101251.81;;;13.03;92.49
52535;BME280;38443;53.164;5.802;2022-10-16T08:48:43;101274.81;;;13.11;90.04
52535;BME280;38443;53.164;5.802;2022-10-16T08:51:10;101277.13;;;12.95;91.01
52535;BME280;38443;53.164;5.802;2022-10-16T08:53:58;101288.91;;;12.91;91.78
52535;BME280;38443;53.164;5.802;2022-10-16T08:56:22;101296.94;;;12.93;91.65
52535;BME280;38443;53.164;5.802;2022-10-16T08:58:48;101306.72;;;12.94;91.07
52535;BME280;38443;53.164;5.802;2022-10-16T09:01:15;101311.66;;;13.08;91.16
52535;BME280;38443;53.164;5.802;2022-10-16T09:11:48;101319.94;;;13.83;88.55
52535;BME280;38443;53.164;5.802;2022-10-16T09:17:15;101334.38;;;14.06;87.45
52535;BME280;38443;53.164;5.802;2022-10-16T09:19:46;101349.31;;;14.14;87.45
52535;BME280;38443;53.164;5.802;2022-10-16T09:22:16;101348.81;;;14.28;86.61
52535;BME280;38443;53.164;5.802;2022-10-16T09:24:41;101345.13;;;14.31;85.77
52535;BME280;38443;53.164;5.802;2022-10-16T09:27:09;101346.53;;;14.41;85.69
52535;BME280;38443;53.164;5.802;2022-10-16T09:29:35;101347.78;;;14.58;84.92
52535;BME280;38443;53.164;5.802;2022-10-16T09:32:07;101348.72;;;14.55;83.88
52535;BME280;38443;53.164;5.802;2022-10-16T09:34:35;101357.09;;;14.47;84.39
52535;BME280;38443;53.164;5.802;2022-10-16T09:37:08;101365.63;;;14.35;84.33
52535;BME280;38443;53.164;5.802;2022-10-16T09:39:47;101373.78;;;14.33;85.28
52535;BME280;38443;53.164;5.802;2022-10-16T09:42:32;101370.63;;;14.46;85.92
52535;BME280;38443;53.164;5.802;2022-10-16T09:45:00;101381.34;;;14.47;84.60
52535;BME280;38443;53.164;5.802;2022-10-16T09:47:26;101368.16;;;14.40;84.14
52535;BME280;38443;53.164;5.802;2022-10-16T09:52:18;101368.97;;;14.42;84.13
52535;BME280;38443;53.164;5.802;2022-10-16T09:54:51;101367.06;;;14.45;83.41
52535;BME280;38443;53.164;5.802;2022-10-16T09:57:16;101374.91;;;14.51;83.90
52535;BME280;38443;53.164;5.802;2022-10-16T09:59:45;101389.75;;;14.63;83.62
52535;BME280;38443;53.164;5.802;2022-10-16T10:02:11;101379.50;;;14.73;83.94
52535;BME280;38443;53.164;5.802;2022-10-16T10:04:39;101380.09;;;14.81;82.81
52535;BME280;38443;53.164;5.802;2022-10-16T10:07:06;101380.84;;;14.85;78.53
52535;BME280;38443;53.164;5.802;2022-10-16T10:09:42;101379.31;;;15.01;77.32
52535;BME280;38443;53.164;5.802;2022-10-16T10:12:19;101397.06;;;15.07;77.06
52535;BME280;38443;53.164;5.802;2022-10-16T10:14:49;101406.94;;;15.08;77.46
52535;BME280;38443;53.164;5.802;2022-10-16T10:17:16;101416.94;;;15.04;76.09
52535;BME280;38443;53.164;5.802;2022-10-16T10:19:49;101416.56;;;14.91;75.20
52535;BME280;38443;53.164;5.802;2022-10-16T10:27:21;101437.41;;;14.86;73.22
52535;BME280;38443;53.164;5.802;2022-10-16T10:29:53;101446.22;;;14.91;72.59
52535;BME280;38443;53.164;5.802;2022-10-16T10:32:39;101450.69;;;14.91;70.96
52535;BME280;38443;53.164;5.802;2022-10-16T10:35:29;101454.34;;;14.90;71.33
52535;BME280;38443;53.164;5.802;2022-10-16T10:38:17;101446.22;;;14.91;70.92
52535;BME280;38443;53.164;5.802;2022-10-16T10:40:52;101444.44;;;14.90;70.87
52535;BME280;38443;53.164;5.802;2022-10-16T10:43:28;101448.94;;;14.90;71.83
52535;BME280;38443;53.164;5.802;2022-10-16T10:46:08;101458.25;;;14.81;71.22
52535;BME280;38443;53.164;5.802;2022-10-16T10:51:14;101458.25;;;14.81;71.40
52535;BME280;38443;53.164;5.802;2022-10-16T10:56:34;101463.84;;;14.75;69.69
52535;BME280;38443;53.164;5.802;2022-10-16T11:07:01;101488.41;;;14.67;69.03
52535;BME280;38443;53.164;5.802;2022-10-16T11:09:37;101495.78;;;14.62;68.46
52535;BME280;38443;53.164;5.802;2022-10-16T11:14:38;101492.50;;;14.52;69.35
52535;BME280;38443;53.164;5.802;2022-10-16T11:17:10;101494.25;;;14.53;70.97
52535;BME280;38443;53.164;5.802;2022-10-16T11:22:39;101506.41;;;14.65;70.09
52535;BME280;38443;53.164;5.802;2022-10-16T11:25:12;101505.47;;;14.68;67.25
52535;BME280;38443;53.164;5.802;2022-10-16T11:27:43;101514.25;;;14.73;67.35
52535;BME280;38443;53.164;5.802;2022-10-16T11:30:28;101515.41;;;14.66;68.55
52535;BME280;38443;53.164;5.802;2022-10-16T11:38:18;101510.78;;;14.69;69.71
52535;BME280;38443;53.164;5.802;2022-10-16T11:40:49;101523.16;;;14.75;67.66
52535;BME280;38443;53.164;5.802;2022-10-16T11:43:25;101520.22;;;14.81;68.64
52535;BME280;38443;53.164;5.802;2022-10-16T11:45:53;101531.00;;;14.81;67.36
52535;BME280;38443;53.164;5.802;2022-10-16T11:51:49;101531.44;;;14.69;66.94
52535;BME280;38443;53.164;5.802;2022-10-16T11:53:47;101539.66;;;14.66;66.74
52535;BME280;38443;53.164;5.802;2022-10-16T11:56:16;101550.56;;;14.61;66.22
52535;BME280;38443;53.164;5.802;2022-10-16T11:59:02;101550.69;;;14.58;66.47
52535;BME280;38443;53.164;5.802;2022-10-16T12:01:40;101551.72;;;14.54;66.57
52535;BME280;38443;53.164;5.802;2022-10-16T12:04:19;101560.78;;;14.51;67.44
52535;BME280;38443;53.164;5.802;2022-10-16T12:09:28;101552.91;;;14.45;67.81
52535;BME280;38443;53.164;5.802;2022-10-16T12:11:54;101569.22;;;14.41;67.06
52535;BME280;38443;53.164;5.802;2022-10-16T12:19:20;101573.94;;;14.34;65.29
52535;BME280;38443;53.164;5.802;2022-10-16T12:21:48;101571.06;;;14.39;67.14
52535;BME280;38443;53.164;5.802;2022-10-16T12:24:20;101579.91;;;14.44;67.14
52535;BME280;38443;53.164;5.802;2022-10-16T12:26:46;101580.72;;;14.46;66.94
52535;BME280;38443;53.164;5.802;2022-10-16T12:29:22;101589.72;;;14.45;67.77
52535;BME280;38443;53.164;5.802;2022-10-16T12:31:48;101594.16;;;14.47;68.19
52535;BME280;38443;53.164;5.802;2022-10-16T12:34:57;101593.31;;;14.45;67.25
52535;BME280;38443;53.164;5.802;2022-10-16T12:37:10;101602.16;;;14.49;68.19
52535;BME280;38443;53.164;5.802;2022-10-16T12:39:36;101586.81;;;14.51;68.02
52535;BME280;38443;53.164;5.802;2022-10-16T12:42:47;101603.16;;;14.46;67.77
52535;BME280;38443;53.164;5.802;2022-10-16T12:44:47;101603.50;;;14.35;68.34
52535;BME280;38443;53.164;5.802;2022-10-16T12:47:23;101595.63;;;14.29;68.04
52535;BME280;38443;53.164;5.802;2022-10-16T12:49:53;101602.88;;;14.27;68.95
52535;BME280;38443;53.164;5.802;2022-10-16T12:52:26;101604.63;;;14.28;70.00
52535;BME280;38443;53.164;5.802;2022-10-16T12:54:52;101611.91;;;14.25;69.58
52535;BME280;38443;53.164;5.802;2022-10-16T13:00:13;101613.00;;;14.19;69.52
52535;BME280;38443;53.164;5.802;2022-10-16T13:08:15;101622.06;;;14.16;69.97
52535;BME280;38443;53.164;5.802;2022-10-16T13:11:03;101622.03;;;14.18;70.83
52535;BME280;38443;53.164;5.802;2022-10-16T13:16:17;101629.31;;;14.14;70.67
52535;BME280;38443;53.164;5.802;2022-10-16T13:21:17;101631.13;;;14.14;70.15
52535;BME280;38443;53.164;5.802;2022-10-16T13:23:54;101638.41;;;14.10;70.12
52535;BME280;38443;53.164;5.802;2022-10-16T13:26:28;101636.69;;;14.08;71.04
52535;BME280;38443;53.164;5.802;2022-10-16T13:28:59;101642.03;;;14.09;71.53
52535;BME280;38443;53.164;5.802;2022-10-16T13:31:26;101646.47;;;14.10;71.18
52535;BME280;38443;53.164;5.802;2022-10-16T13:33:52;101646.44;;;14.12;71.56
52535;BME280;38443;53.164;5.802;2022-10-16T13:36:27;101656.22;;;14.14;70.45
52535;BME280;38443;53.164;5.802;2022-10-16T13:41:36;101662.59;;;14.12;70.81
52535;BME280;38443;53.164;5.802;2022-10-16T13:44:02;101663.50;;;14.11;70.26
52535;BME280;38443;53.164;5.802;2022-10-16T13:46:27;101668.03;;;14.10;71.54
52535;BME280;38443;53.164;5.802;2022-10-16T13:49:02;101681.47;;;14.10;70.90
52535;BME280;38443;53.164;5.802;2022-10-16T13:51:28;101685.19;;;14.06;70.38
52535;BME280;38443;53.164;5.802;2022-10-16T13:53:54;101680.81;;;14.04;70.70
52535;BME280;38443;53.164;5.802;2022-10-16T13:56:20;101686.38;;;13.98;70.55
52535;BME280;38443;53.164;5.802;2022-10-16T13:58:57;101691.88;;;13.93;70.77
52535;BME280;38443;53.164;5.802;2022-10-16T14:01:23;101695.53;;;13.90;70.36
52535;BME280;38443;53.164;5.802;2022-10-16T14:03:49;101687.50;;;13.89;69.29
52535;BME280;38443;53.164;5.802;2022-10-16T14:06:16;101687.44;;;13.92;69.39
52535;BME280;38443;53.164;5.802;2022-10-16T14:08:43;101689.97;;;13.96;68.85
52535;BME280;38443;53.164;5.802;2022-10-16T14:11:09;101689.84;;;14.01;70.17
52535;BME280;38443;53.164;5.802;2022-10-16T14:13:39;101684.38;;;14.04;70.90
52535;BME280;38443;53.164;5.802;2022-10-16T14:16:09;101691.53;;;14.05;70.71
52535;BME280;38443;53.164;5.802;2022-10-16T14:18:34;101699.53;;;14.07;70.54
52535;BME280;38443;53.164;5.802;2022-10-16T14:21:03;101703.25;;;14.03;70.95
52535;BME280;38443;53.164;5.802;2022-10-16T14:23:30;101706.03;;;14.00;71.24
52535;BME280;38443;53.164;5.802;2022-10-16T14:26:05;101715.16;;;13.95;71.17
52535;BME280;38443;53.164;5.802;2022-10-16T14:28:30;101718.75;;;13.94;71.44
52535;BME280;38443;53.164;5.802;2022-10-16T14:30:57;101724.13;;;13.94;72.14
52535;BME280;38443;53.164;5.802;2022-10-16T14:36:05;101728.63;;;13.94;72.08
52535;BME280;38443;53.164;5.802;2022-10-16T14:38:31;101735.13;;;13.87;72.70